Time;durP1;ratioP1;P1;durP2;ratioP2;P2;SDS_P1;SDS_P2;PMS_P1;PMS_P2;Temp;Humidity;BMP_temperature;BMP_pressure;BME280_temperature;BME280_humidity;BME280_pressure;Samples;Min_cycle;Max_cycle;Signal;HPM_P1;HPM_P2
2022/11/23 00:00:26;;;;;;;16.20;9.50;;;8.20;99.90;;;;;;5113968;27;20039;-48
2022/11/23 00:02:56;;;;;;;13.40;8.60;;;8.00;99.90;;;;;;5115013;27;20039;-45
2022/11/23 00:05:22;;;;;;;17.88;9.15;;;7.70;99.90;;;;;;5096117;28;20105;-46
2022/11/23 00:07:48;;;;;;;17.75;10.05;;;7.60;99.90;;;;;;5097291;28;20051;-46
2022/11/23 00:10:14;;;;;;;16.38;9.40;;;7.70;99.90;;;;;;5112938;28;20383;-49
2022/11/23 00:12:39;;;;;;;18.50;10.00;;;8.00;99.90;;;;;;5113146;27;20050;-47
2022/11/23 00:15:06;;;;;;;16.27;9.68;;;8.00;99.90;;;;;;5094514;28;20031;-49
2022/11/23 00:17:32;;;;;;;15.82;10.23;;;8.10;99.90;;;;;;5112902;28;20089;-48
2022/11/23 00:19:58;;;;;;;15.23;9.93;;;8.00;99.90;;;;;;5113163;28;20031;-45
2022/11/23 00:22:24;;;;;;;14.93;9.60;;;8.10;99.90;;;;;;5094295;28;20416;-45
2022/11/23 00:24:49;;;;;;;17.85;10.63;;;7.90;99.90;;;;;;5112189;27;20071;-48
2022/11/23 00:27:15;;;;;;;20.92;10.68;;;8.10;99.90;;;;;;5113109;27;20051;-49
2022/11/23 00:29:41;;;;;;;16.30;10.75;;;8.00;99.90;;;;;;5113087;27;20381;-47
2022/11/23 00:32:06;;;;;;;16.83;10.32;;;7.60;99.90;;;;;;5112897;27;20032;-47
2022/11/23 00:34:32;;;;;;;17.45;10.00;;;7.90;99.90;;;;;;5113306;27;20039;-47
2022/11/23 00:36:58;;;;;;;17.75;10.55;;;7.70;99.90;;;;;;5114144;27;20058;-47
2022/11/23 00:39:23;;;;;;;15.93;10.70;;;8.10;99.90;;;;;;5113587;27;20031;-47
2022/11/23 00:41:49;;;;;;;17.65;10.32;;;8.10;99.90;;;;;;5114150;27;20173;-46
2022/11/23 00:44:15;;;;;;;21.92;11.10;;;8.30;99.90;;;;;;5113374;27;20055;-46
2022/11/23 00:46:40;;;;;;;17.25;11.43;;;8.10;99.90;;;;;;5112217;28;20042;-48
2022/11/23 00:49:06;;;;;;;18.58;10.85;;;7.60;99.90;;;;;;5114678;27;20046;-48
2022/11/23 00:51:34;;;;;;;17.23;11.48;;;7.90;99.90;;;;;;5113863;27;20035;-45
2022/11/23 00:54:02;;;;;;;21.15;11.25;;;7.60;99.90;;;;;;5112119;28;20038;-47
2022/11/23 00:56:29;;;;;;;19.45;12.38;;;7.70;99.90;;;;;;5112162;28;20388;-47
2022/11/23 00:58:57;;;;;;;19.45;12.45;;;7.60;99.90;;;;;;5112073;28;20040;-46
2022/11/23 01:01:25;;;;;;;17.35;11.23;;;8.00;99.90;;;;;;5111912;28;20114;-45
2022/11/23 01:03:54;;;;;;;20.35;12.25;;;8.00;99.90;;;;;;5112576;27;20726;-46
2022/11/23 01:06:22;;;;;;;17.00;11.32;;;7.80;99.90;;;;;;5110857;28;20048;-47
2022/11/23 01:08:56;;;;;;;19.42;11.32;;;8.10;99.90;;;;;;5111011;27;20122;-46
2022/11/23 01:11:23;;;;;;;19.48;12.07;;;8.10;99.90;;;;;;5112232;27;20119;-45
2022/11/23 01:13:49;;;;;;;19.83;11.57;;;7.70;99.90;;;;;;5112569;27;20039;-45
2022/11/23 01:16:27;;;;;;;18.05;12.10;;;7.80;99.90;;;;;;5113298;27;20038;-46
2022/11/23 01:18:59;;;;;;;15.65;11.57;;;8.10;99.90;;;;;;5093886;28;20368;-46
2022/11/23 01:21:26;;;;;;;18.10;11.05;;;8.00;99.90;;;;;;5109056;27;20047;-46
2022/11/23 01:23:52;;;;;;;18.60;11.95;;;8.10;99.90;;;;;;5111881;27;20126;-46
2022/11/23 01:26:18;;;;;;;21.70;12.93;;;7.70;99.90;;;;;;5113848;27;20125;-45
2022/11/23 01:28:44;;;;;;;17.23;12.65;;;7.90;99.90;;;;;;5094061;28;20459;-49
2022/11/23 01:31:16;;;;;;;17.80;12.65;;;7.90;99.90;;;;;;5113448;27;20075;-47
2022/11/23 01:33:42;;;;;;;19.75;12.80;;;7.90;99.90;;;;;;5110917;28;20035;-48
2022/11/23 01:36:10;;;;;;;20.70;13.70;;;7.90;99.90;;;;;;5111305;28;20039;-50
2022/11/23 01:38:36;;;;;;;21.52;14.10;;;8.10;99.90;;;;;;5093084;28;20039;-47
2022/11/23 01:41:04;;;;;;;20.27;13.18;;;8.50;99.90;;;;;;5111293;28;20066;-46
2022/11/23 01:43:30;;;;;;;22.58;13.35;;;7.90;99.90;;;;;;5093194;28;20054;-48
2022/11/23 01:45:56;;;;;;;26.00;14.02;;;7.80;99.90;;;;;;5111469;27;20433;-46
2022/11/23 01:48:37;;;;;;;21.15;13.30;;;8.20;99.90;;;;;;5111413;27;20035;-47
2022/11/23 01:51:24;;;;;;;20.00;13.60;;;7.70;99.90;;;;;;5110876;28;20027;-45
2022/11/23 01:53:53;;;;;;;21.45;13.60;;;8.20;99.90;;;;;;5112312;27;20027;-46
2022/11/23 01:56:23;;;;;;;22.08;13.80;;;8.20;99.90;;;;;;5111669;27;20028;-48
2022/11/23 01:58:52;;;;;;;20.60;14.18;;;7.70;99.90;;;;;;5112469;27;20044;-48
2022/11/23 02:01:18;;;;;;;24.40;14.00;;;8.20;99.90;;;;;;5111013;27;20043;-47
2022/11/23 02:03:47;;;;;;;20.77;14.77;;;8.20;99.90;;;;;;5111752;27;20050;-45
2022/11/23 02:06:16;;;;;;;24.23;14.68;;;7.60;99.90;;;;;;5112634;27;20061;-46
2022/11/23 02:08:43;;;;;;;21.35;14.32;;;7.90;99.90;;;;;;5111646;27;20047;-49
2022/11/23 02:11:11;;;;;;;19.92;13.93;;;7.80;99.90;;;;;;5113087;27;20044;-46
2022/11/23 02:13:37;;;;;;;21.00;15.07;;;7.60;99.90;;;;;;5111538;27;20111;-45
2022/11/23 02:16:03;;;;;;;23.48;15.27;;;7.90;99.90;;;;;;5113176;27;20126;-47
2022/11/23 02:18:31;;;;;;;22.25;15.65;;;8.10;99.90;;;;;;5111646;27;20051;-49
2022/11/23 02:20:59;;;;;;;27.52;16.25;;;8.10;99.90;;;;;;5110121;28;20063;-49
2022/11/23 02:24:02;;;;;;;26.50;16.50;;;8.00;99.90;;;;;;5110414;28;20036;-48
2022/11/23 02:26:31;;;;;;;28.27;17.13;;;7.70;99.90;;;;;;5110461;28;20139;-47
2022/11/23 02:29:04;;;;;;;25.00;17.10;;;8.10;99.90;;;;;;5091932;28;20047;-47
2022/11/23 02:31:31;;;;;;;28.95;18.42;;;7.70;99.90;;;;;;5092319;28;20031;-45
2022/11/23 02:33:56;;;;;;;34.55;19.55;;;8.20;99.90;;;;;;5110487;27;20042;-48
2022/11/23 02:36:41;;;;;;;28.60;18.27;;;7.90;99.90;;;;;;5111130;27;21408;-49
2022/11/23 02:39:11;;;;;;;41.47;20.60;;;8.30;99.90;;;;;;5110394;27;20058;-48
2022/11/23 02:41:43;;;;;;;34.10;19.45;;;7.90;99.90;;;;;;5091736;28;20032;-46
2022/11/23 02:44:34;;;;;;;32.65;20.40;;;7.70;99.90;;;;;;5092923;28;20078;-47
2022/11/23 02:47:00;;;;;;;32.28;20.35;;;8.00;99.90;;;;;;5112054;27;20039;-46
2022/11/23 02:49:26;;;;;;;32.65;19.33;;;8.30;99.90;;;;;;5111235;28;20046;-45
2022/11/23 02:51:52;;;;;;;33.90;19.38;;;7.90;99.90;;;;;;5111240;27;20399;-45
2022/11/23 02:54:17;;;;;;;32.97;20.33;;;8.30;99.90;;;;;;5094124;28;20044;-47
2022/11/23 02:56:43;;;;;;;32.50;19.38;;;8.40;99.90;;;;;;5110270;28;20368;-49
2022/11/23 02:59:09;;;;;;;35.40;20.85;;;8.10;99.90;;;;;;5110321;28;20120;-46
2022/11/23 03:01:34;;;;;;;37.40;20.73;;;8.30;99.90;;;;;;5093279;28;20031;-50
2022/11/23 03:04:00;;;;;;;38.45;21.08;;;7.90;99.90;;;;;;5111211;28;20043;-46
2022/11/23 03:06:26;;;;;;;36.13;21.38;;;8.20;99.90;;;;;;5109345;28;20043;-46
2022/11/23 03:08:51;;;;;;;32.72;20.38;;;8.20;99.90;;;;;;5091249;28;20035;-46
2022/11/23 03:11:17;;;;;;;32.95;22.25;;;7.80;99.90;;;;;;5110002;28;20062;-45
2022/11/23 03:13:42;;;;;;;37.65;22.25;;;7.70;99.90;;;;;;5110037;28;20070;-49
2022/11/23 03:16:09;;;;;;;38.33;21.95;;;8.20;99.90;;;;;;5110073;28;20039;-48
2022/11/23 03:18:34;;;;;;;36.92;21.88;;;7.60;99.90;;;;;;5110159;28;20038;-47
2022/11/23 03:21:04;;;;;;;41.35;21.63;;;7.60;99.90;;;;;;5110543;28;20047;-49
2022/11/23 03:23:30;;;;;;;39.17;22.83;;;8.00;99.90;;;;;;5110219;28;20154;-48
2022/11/23 03:25:59;;;;;;;40.33;22.48;;;7.70;99.90;;;;;;5110373;28;20134;-46
2022/11/23 03:28:24;;;;;;;36.17;23.70;;;7.60;99.90;;;;;;5091393;28;20043;-46
2022/11/23 03:30:50;;;;;;;44.90;25.38;;;7.60;99.90;;;;;;5109690;28;20042;-46
2022/11/23 03:33:16;;;;;;;44.42;25.00;;;8.10;99.90;;;;;;5113562;27;20028;-45
2022/11/23 03:35:42;;;;;;;44.15;25.23;;;8.20;99.90;;;;;;5114515;27;20032;-46
2022/11/23 03:38:08;;;;;;;44.17;26.75;;;7.90;99.90;;;;;;5114569;27;20534;-46
2022/11/23 03:40:34;;;;;;;48.72;26.40;;;7.60;99.90;;;;;;5115533;27;20114;-46
2022/11/23 03:42:59;;;;;;;49.15;27.67;;;8.10;99.90;;;;;;5114043;27;20031;-48
2022/11/23 03:45:25;;;;;;;50.72;27.13;;;7.70;99.90;;;;;;5114398;27;20386;-47
2022/11/23 03:47:51;;;;;;;49.75;26.35;;;7.60;99.90;;;;;;5114014;27;20513;-46
2022/11/23 03:50:16;;;;;;;52.17;28.13;;;7.60;99.90;;;;;;5114360;27;20543;-49
2022/11/23 03:52:42;;;;;;;47.28;27.83;;;8.30;99.90;;;;;;5113300;28;20398;-46
2022/11/23 03:55:08;;;;;;;48.05;27.27;;;8.00;99.90;;;;;;5095460;27;20087;-48
2022/11/23 03:57:34;;;;;;;44.10;26.50;;;8.10;99.90;;;;;;5115588;27;20167;-47
2022/11/23 03:59:59;;;;;;;45.72;27.75;;;7.60;99.90;;;;;;5112780;28;20562;-46
2022/11/23 04:02:25;;;;;;;47.58;27.40;;;8.20;99.90;;;;;;5112664;28;20061;-46
2022/11/23 04:04:51;;;;;;;45.15;27.20;;;8.00;99.90;;;;;;5113314;28;20031;-48
2022/11/23 04:07:16;;;;;;;46.10;27.38;;;7.60;99.90;;;;;;5113602;27;20039;-47
2022/11/23 04:09:42;;;;;;;49.22;27.63;;;7.50;99.90;;;;;;5077833;28;20071;-47
2022/11/23 04:12:09;;;;;;;48.03;27.90;;;7.70;99.90;;;;;;5113385;27;20039;-48
2022/11/23 04:14:34;;;;;;;49.22;26.98;;;7.50;99.90;;;;;;5112602;28;20028;-47
2022/11/23 04:17:01;;;;;;;46.13;26.92;;;8.00;99.90;;;;;;5113340;27;20425;-49
2022/11/23 04:19:27;;;;;;;43.45;27.08;;;7.90;99.90;;;;;;5113799;27;20043;-47
2022/11/23 04:21:53;;;;;;;44.05;25.92;;;7.90;99.90;;;;;;5113431;27;20100;-46
2022/11/23 04:24:19;;;;;;;47.58;27.58;;;7.60;99.90;;;;;;5114006;27;20055;-51
2022/11/23 04:26:44;;;;;;;48.83;27.90;;;7.60;99.90;;;;;;5113063;27;20040;-45
2022/11/23 04:29:10;;;;;;;45.83;27.15;;;7.50;99.90;;;;;;5094787;28;20051;-49
2022/11/23 04:31:36;;;;;;;48.88;28.67;;;7.50;99.90;;;;;;5113653;27;20057;-47
2022/11/23 04:34:02;;;;;;;44.42;27.83;;;8.60;99.90;;;;;;5113221;27;20046;-45
2022/11/23 04:36:27;;;;;;;44.55;25.83;;;8.10;99.90;;;;;;5114140;27;20035;-45
2022/11/23 04:38:53;;;;;;;42.25;26.73;;;7.50;99.90;;;;;;5113481;27;20035;-48
2022/11/23 04:41:19;;;;;;;42.55;26.45;;;7.90;99.90;;;;;;5113575;27;20045;-46
2022/11/23 04:43:47;;;;;;;43.78;25.45;;;7.90;99.90;;;;;;5113904;27;20035;-46
2022/11/23 04:46:13;;;;;;;43.35;25.05;;;8.20;99.90;;;;;;5112711;28;20562;-46
2022/11/23 04:48:38;;;;;;;38.95;23.85;;;7.90;99.90;;;;;;5112808;27;20122;-46
2022/11/23 04:51:04;;;;;;;37.05;23.88;;;7.60;99.90;;;;;;5113984;27;20043;-46
2022/11/23 04:53:30;;;;;;;37.40;22.65;;;7.70;99.90;;;;;;5113279;27;20131;-46
2022/11/23 04:55:56;;;;;;;36.10;22.30;;;8.20;99.90;;;;;;5114702;27;20024;-49
2022/11/23 04:58:21;;;;;;;37.05;22.95;;;7.80;99.90;;;;;;5078095;28;20112;-46
2022/11/23 05:00:47;;;;;;;34.33;21.20;;;8.00;99.90;;;;;;5112408;28;20035;-47
2022/11/23 05:03:13;;;;;;;31.13;20.30;;;8.20;99.90;;;;;;5112481;28;20031;-47
2022/11/23 05:05:40;;;;;;;34.35;20.55;;;7.80;99.90;;;;;;5113707;27;20116;-48
2022/11/23 05:08:06;;;;;;;31.65;20.35;;;8.10;99.90;;;;;;5113032;27;20043;-47
2022/11/23 05:10:32;;;;;;;31.65;19.13;;;8.20;99.90;;;;;;5113167;27;21175;-48
2022/11/23 05:12:58;;;;;;;34.63;19.70;;;7.70;99.90;;;;;;5114509;27;20243;-47
2022/11/23 05:15:23;;;;;;;32.15;18.38;;;8.10;99.90;;;;;;5111018;27;20143;-50
2022/11/23 05:17:49;;;;;;;31.80;18.30;;;7.60;99.90;;;;;;5111628;28;20024;-47
2022/11/23 05:20:15;;;;;;;33.42;18.05;;;7.60;99.90;;;;;;5093499;28;20078;-50
2022/11/23 05:22:41;;;;;;;33.63;18.15;;;7.60;99.90;;;;;;5111859;27;20046;-46
2022/11/23 05:25:07;;;;;;;30.00;17.63;;;7.80;99.90;;;;;;5093145;28;20054;-48
2022/11/23 05:27:33;;;;;;;24.98;16.10;;;7.90;99.90;;;;;;5111887;28;20040;-47
2022/11/23 05:29:58;;;;;;;27.83;16.25;;;7.50;99.90;;;;;;5111814;27;20034;-48
2022/11/23 05:32:24;;;;;;;27.85;14.93;;;7.40;99.90;;;;;;5111727;27;20497;-49
2022/11/23 05:34:50;;;;;;;26.40;15.43;;;7.40;99.90;;;;;;5112951;27;20043;-45
2022/11/23 05:37:16;;;;;;;24.80;15.20;;;7.70;99.90;;;;;;5112138;27;20037;-46
2022/11/23 05:39:41;;;;;;;26.95;14.65;;;7.30;99.90;;;;;;5112890;27;20035;-45
2022/11/23 05:42:08;;;;;;;25.15;13.73;;;7.90;99.90;;;;;;5112337;27;20495;-45
2022/11/23 05:44:33;;;;;;;22.90;13.10;;;7.60;99.90;;;;;;5112441;27;20085;-47
2022/11/23 05:46:59;;;;;;;22.70;12.63;;;7.20;99.90;;;;;;5112983;27;20043;-46
2022/11/23 05:49:25;;;;;;;20.60;12.07;;;7.70;99.90;;;;;;5112360;27;20076;-45
2022/11/23 05:51:51;;;;;;;22.08;11.88;;;7.40;99.90;;;;;;5111091;28;20028;-46
2022/11/23 05:54:16;;;;;;;20.88;11.23;;;7.20;99.90;;;;;;5111336;28;20020;-50
2022/11/23 05:56:42;;;;;;;18.17;11.13;;;7.40;99.90;;;;;;5110831;28;20085;-48
2022/11/23 05:59:09;;;;;;;19.15;10.32;;;7.10;99.90;;;;;;5111265;28;20043;-49
2022/11/23 06:01:35;;;;;;;22.50;11.40;;;7.40;99.90;;;;;;5112791;27;20601;-46
2022/11/23 06:04:01;;;;;;;20.10;10.45;;;7.10;99.90;;;;;;5092157;28;20501;-51
2022/11/23 06:06:26;;;;;;;16.92;9.95;;;7.40;99.90;;;;;;5112358;27;20044;-47
2022/11/23 06:08:52;;;;;;;21.35;10.50;;;7.00;99.90;;;;;;5112565;27;20105;-47
2022/11/23 06:11:18;;;;;;;18.25;9.73;;;7.30;99.90;;;;;;5092388;28;20631;-46
2022/11/23 06:13:46;;;;;;;16.88;9.13;;;7.00;99.90;;;;;;5110776;28;20433;-48
2022/11/23 06:16:12;;;;;;;17.70;9.73;;;7.10;99.90;;;;;;5110864;28;20058;-48
2022/11/23 06:18:38;;;;;;;17.60;10.30;;;7.40;99.90;;;;;;5110675;27;20130;-49
2022/11/23 06:21:03;;;;;;;19.98;9.98;;;7.00;99.90;;;;;;5110822;27;20060;-47
2022/11/23 06:23:29;;;;;;;18.13;9.05;;;7.40;99.90;;;;;;5111315;27;20043;-49
2022/11/23 06:25:58;;;;;;;22.08;9.20;;;7.00;99.90;;;;;;5110503;27;20043;-48
2022/11/23 06:28:26;;;;;;;20.60;10.52;;;7.40;99.90;;;;;;5092058;28;20051;-49
2022/11/23 06:30:51;;;;;;;19.40;9.00;;;7.00;99.90;;;;;;5110574;28;20040;-48
2022/11/23 06:33:17;;;;;;;24.67;9.88;;;7.10;99.90;;;;;;5110624;28;20035;-47
2022/11/23 06:35:51;;;;;;;18.73;8.82;;;7.10;99.90;;;;;;5093463;28;20437;-45
2022/11/23 06:38:17;;;;;;;22.45;9.23;;;7.20;99.90;;;;;;5110126;28;20084;-48
2022/11/23 06:40:43;;;;;;;21.13;8.65;;;7.20;99.90;;;;;;5110416;28;20104;-47
2022/11/23 06:43:08;;;;;;;20.80;8.88;;;7.30;99.90;;;;;;5110557;28;20046;-45
2022/11/23 06:45:34;;;;;;;18.45;7.80;;;7.40;99.90;;;;;;5110800;28;20066;-48
2022/11/23 06:48:00;;;;;;;18.73;7.57;;;7.60;99.90;;;;;;5110596;28;20379;-47
2022/11/23 06:50:25;;;;;;;21.25;8.20;;;7.60;99.90;;;;;;5109643;28;20122;-46
2022/11/23 06:52:57;;;;;;;18.33;7.60;;;7.60;99.90;;;;;;5109838;28;20046;-47
2022/11/23 06:55:24;;;;;;;17.42;8.20;;;7.60;99.90;;;;;;5110412;28;20039;-46
2022/11/23 06:57:50;;;;;;;23.85;8.05;;;7.70;99.90;;;;;;5110279;28;20064;-45
2022/11/23 07:00:18;;;;;;;15.23;7.38;;;7.50;99.90;;;;;;5092095;28;20379;-50
2022/11/23 07:02:49;;;;;;;17.58;7.60;;;7.40;99.90;;;;;;5110068;28;20040;-47
2022/11/23 07:05:15;;;;;;;19.17;7.50;;;7.60;99.90;;;;;;5110789;28;20051;-47
2022/11/23 07:07:40;;;;;;;17.35;8.00;;;7.60;99.90;;;;;;5091918;28;20047;-49
2022/11/23 07:10:07;;;;;;;15.07;7.40;;;7.80;99.90;;;;;;5110252;28;20059;-48
2022/11/23 07:12:32;;;;;;;15.05;7.45;;;7.50;99.90;;;;;;5109853;28;20118;-48
2022/11/23 07:14:58;;;;;;;16.08;7.57;;;7.90;99.90;;;;;;5110768;28;20143;-47
2022/11/23 07:17:24;;;;;;;19.45;7.70;;;8.00;99.90;;;;;;5104174;28;20035;-47
2022/11/23 07:19:49;;;;;;;13.73;7.40;;;7.80;99.90;;;;;;5109993;28;20032;-48
2022/11/23 07:22:15;;;;;;;15.07;7.50;;;7.80;99.90;;;;;;5110725;28;20148;-50
2022/11/23 07:24:40;;;;;;;22.42;8.05;;;7.50;99.90;;;;;;5108523;28;20079;-46
2022/11/23 07:27:06;;;;;;;17.55;7.80;;;7.50;99.90;;;;;;5100253;28;20036;-48
2022/11/23 07:29:32;;;;;;;18.05;7.25;;;7.90;99.90;;;;;;5107066;28;20039;-47
2022/11/23 07:31:57;;;;;;;19.25;7.50;;;7.90;99.90;;;;;;5102648;28;20035;-49
2022/11/23 07:34:23;;;;;;;16.13;6.53;;;7.60;99.90;;;;;;5102106;28;20036;-47
2022/11/23 07:36:49;;;;;;;17.40;6.90;;;7.90;99.90;;;;;;5106721;28;20043;-46
2022/11/23 07:39:14;;;;;;;15.77;6.57;;;7.60;99.90;;;;;;5103351;28;20390;-46
2022/11/23 07:41:40;;;;;;;15.18;7.22;;;8.00;99.90;;;;;;5101590;28;20441;-50
2022/11/23 07:44:06;;;;;;;16.98;7.22;;;8.00;99.90;;;;;;5106554;28;20063;-48
2022/11/23 07:46:31;;;;;;;21.25;7.65;;;7.60;99.90;;;;;;5103391;28;20363;-46
2022/11/23 07:49:01;;;;;;;19.80;7.20;;;8.00;99.90;;;;;;5088196;28;20494;-48
2022/11/23 07:51:30;;;;;;;15.80;7.00;;;7.70;99.90;;;;;;5089505;28;20039;-49
2022/11/23 07:53:56;;;;;;;17.15;6.53;;;7.70;99.90;;;;;;5102997;28;20044;-46
2022/11/23 07:56:22;;;;;;;13.90;6.18;;;7.70;99.90;;;;;;5101118;28;20040;-45
2022/11/23 07:58:47;;;;;;;21.40;7.30;;;7.70;99.90;;;;;;5096302;28;20355;-45
2022/11/23 08:01:17;;;;;;;15.73;6.57;;;8.00;99.90;;;;;;5101540;28;20490;-45
2022/11/23 08:03:44;;;;;;;20.50;6.55;;;7.80;99.90;;;;;;5099039;28;20047;-47
2022/11/23 08:06:10;;;;;;;16.08;6.38;;;8.10;99.90;;;;;;5103690;28;20476;-48
2022/11/23 08:08:37;;;;;;;18.58;5.78;;;7.70;99.90;;;;;;5099739;28;20040;-50
2022/11/23 08:11:04;;;;;;;18.35;5.95;;;7.80;99.90;;;;;;5100648;28;20538;-46
2022/11/23 08:13:31;;;;;;;16.45;6.20;;;7.80;99.90;;;;;;5083951;28;20086;-46
2022/11/23 08:15:57;;;;;;;16.20;6.25;;;8.50;99.90;;;;;;5098841;28;20036;-46
2022/11/23 08:18:23;;;;;;;18.27;5.95;;;7.90;99.90;;;;;;5100008;28;20036;-45
2022/11/23 08:20:48;;;;;;;16.33;6.07;;;7.90;99.90;;;;;;5100216;28;20435;-46
2022/11/23 08:23:14;;;;;;;16.88;5.20;;;8.10;99.90;;;;;;5102255;28;20023;-49
2022/11/23 08:25:40;;;;;;;15.80;5.90;;;7.80;99.90;;;;;;5102268;28;20074;-48
2022/11/23 08:28:06;;;;;;;13.13;5.70;;;8.10;99.90;;;;;;5103482;28;20043;-45
2022/11/23 08:30:33;;;;;;;15.15;5.88;;;7.70;99.90;;;;;;5102382;28;20043;-47
2022/11/23 08:33:02;;;;;;;15.55;5.85;;;8.00;99.90;;;;;;5101528;28;20027;-48
2022/11/23 08:35:28;;;;;;;16.80;4.95;;;7.90;99.90;;;;;;5085147;28;20034;-50
2022/11/23 08:37:53;;;;;;;15.43;4.97;;;7.70;99.90;;;;;;5103060;28;20036;-49
2022/11/23 08:40:19;;;;;;;13.85;5.05;;;7.60;99.90;;;;;;5102592;28;20123;-50
2022/11/23 08:42:46;;;;;;;14.00;5.22;;;7.90;99.90;;;;;;5102629;28;20438;-48
2022/11/23 08:45:11;;;;;;;12.40;4.47;;;7.60;99.90;;;;;;5101697;28;20588;-46
2022/11/23 08:47:37;;;;;;;13.68;4.55;;;7.80;99.90;;;;;;5083571;28;20020;-48
2022/11/23 08:50:03;;;;;;;16.27;4.78;;;7.90;99.90;;;;;;5101594;28;20039;-47
2022/11/23 08:52:29;;;;;;;18.58;5.25;;;7.90;99.90;;;;;;5102443;28;20067;-50
2022/11/23 08:54:55;;;;;;;18.42;5.10;;;7.70;99.90;;;;;;5099432;28;20039;-47
2022/11/23 08:57:20;;;;;;;14.00;4.78;;;7.90;99.90;;;;;;5097537;28;20122;-46
2022/11/23 08:59:46;;;;;;;15.65;4.78;;;7.90;99.90;;;;;;5099905;28;20034;-48
2022/11/23 09:02:12;;;;;;;12.07;4.65;;;7.70;99.90;;;;;;5106324;27;20059;-46
2022/11/23 09:04:42;;;;;;;16.50;5.20;;;8.00;99.90;;;;;;5111413;27;20036;-46
2022/11/23 09:07:07;;;;;;;15.00;5.10;;;8.00;99.90;;;;;;5108715;28;20032;-46
2022/11/23 09:09:33;;;;;;;14.43;4.97;;;8.00;99.90;;;;;;5110454;28;20436;-46
2022/11/23 09:11:59;;;;;;;18.63;5.60;;;7.90;99.90;;;;;;5060812;28;20040;-46
2022/11/23 09:14:26;;;;;;;18.60;5.15;;;8.10;99.90;;;;;;5109807;27;20047;-46
2022/11/23 09:16:53;;;;;;;20.45;5.13;;;8.10;99.90;;;;;;5085241;27;20040;-47
2022/11/23 09:19:19;;;;;;;17.55;5.97;;;8.30;99.90;;;;;;5095653;27;20039;-46
2022/11/23 09:21:44;;;;;;;15.20;4.90;;;8.00;99.90;;;;;;5108159;27;20077;-48
2022/11/23 09:24:11;;;;;;;20.58;4.63;;;8.40;99.90;;;;;;5109633;27;20093;-46
2022/11/23 09:26:37;;;;;;;16.90;3.75;;;8.10;99.90;;;;;;5093176;28;20067;-50
2022/11/23 09:29:04;;;;;;;16.70;4.70;;;8.10;99.90;;;;;;5108698;27;20040;-46
2022/11/23 09:31:29;;;;;;;18.38;4.40;;;8.40;99.90;;;;;;5091621;28;20050;-46
2022/11/23 09:33:55;;;;;;;12.52;3.92;;;8.30;99.90;;;;;;5102466;27;20036;-44
2022/11/23 09:36:24;;;;;;;14.40;4.10;;;8.30;99.90;;;;;;5110796;27;20039;-49
2022/11/23 09:38:50;;;;;;;20.40;4.50;;;8.50;99.90;;;;;;5108958;27;20508;-46
2022/11/23 09:41:34;;;;;;;12.70;3.60;;;8.30;99.90;;;;;;5110260;27;20040;-48
2022/11/23 09:44:21;;;;;;;14.38;4.30;;;8.30;99.90;;;;;;5111850;27;21510;-45
2022/11/23 09:47:25;;;;;;;17.92;4.20;;;8.30;99.90;;;;;;5105358;27;20116;-47
2022/11/23 09:50:23;;;;;;;18.95;4.50;;;8.50;99.90;;;;;;5106304;27;20082;-46
2022/11/23 09:52:50;;;;;;;17.55;3.67;;;8.60;99.90;;;;;;5110115;28;20486;-45
2022/11/23 09:55:40;;;;;;;20.67;4.32;;;8.40;99.90;;;;;;5109910;28;20077;-45
2022/11/23 09:58:06;;;;;;;15.93;3.65;;;8.50;99.90;;;;;;5106033;27;20439;-45
2022/11/23 10:00:38;;;;;;;18.30;4.25;;;8.30;99.90;;;;;;5110406;28;20093;-45
2022/11/23 10:03:03;;;;;;;17.67;4.10;;;8.40;99.90;;;;;;5109019;28;20547;-45
2022/11/23 10:05:35;;;;;;;14.23;3.67;;;8.40;99.90;;;;;;5108027;28;20041;-45
2022/11/23 10:08:40;;;;;;;14.13;3.90;;;8.30;99.90;;;;;;5104342;28;20118;-45
2022/11/23 10:11:24;;;;;;;16.90;3.88;;;8.60;99.90;;;;;;5083498;28;20078;-47
2022/11/23 10:14:05;;;;;;;18.08;3.80;;;8.50;99.90;;;;;;5095433;28;20511;-45
2022/11/23 10:16:40;;;;;;;16.70;3.05;;;8.70;99.90;;;;;;5084697;28;20089;-47
2022/11/23 10:19:28;;;;;;;15.07;3.17;;;8.60;99.90;;;;;;5106638;28;20533;-47
2022/11/23 10:22:15;;;;;;;13.82;3.30;;;8.60;99.90;;;;;;5111319;27;20055;-46
2022/11/23 10:24:49;;;;;;;13.10;2.97;;;8.60;99.90;;;;;;5110014;27;20059;-45
2022/11/23 10:27:20;;;;;;;17.45;3.38;;;8.70;99.90;;;;;;5122695;27;20101;-47
2022/11/23 10:29:47;;;;;;;13.20;2.60;;;8.70;99.90;;;;;;5091794;28;20043;-45
2022/11/23 10:32:37;;;;;;;13.88;2.92;;;7.60;99.90;;;;;;5109456;28;20087;-49
2022/11/23 10:35:12;;;;;;;16.88;3.47;;;8.60;99.90;;;;;;5110973;27;20385;-44
2022/11/23 10:37:39;;;;;;;17.73;3.85;;;8.60;99.90;;;;;;5110602;27;20036;-46
2022/11/23 10:40:22;;;;;;;17.15;3.22;;;8.70;99.90;;;;;;5110843;27;20035;-47
2022/11/23 10:42:59;;;;;;;16.58;3.40;;;8.90;99.90;;;;;;5108197;27;20088;-48
2022/11/23 10:45:27;;;;;;;16.35;3.30;;;9.10;99.90;;;;;;5110422;28;20035;-47
2022/11/23 10:47:59;;;;;;;12.45;2.72;;;9.40;99.90;;;;;;5109503;28;20071;-46
2022/11/23 10:50:26;;;;;;;12.45;3.00;;;9.70;99.90;;;;;;5090731;28;20039;-47
2022/11/23 10:52:58;;;;;;;15.98;3.53;;;9.90;99.90;;;;;;5110476;28;20414;-47
2022/11/23 10:55:30;;;;;;;14.70;2.88;;;10.00;99.90;;;;;;5110286;28;20360;-45
2022/11/23 10:57:56;;;;;;;13.45;2.58;;;10.00;99.90;;;;;;5090531;28;20432;-45
2022/11/23 11:00:23;;;;;;;14.48;3.33;;;10.00;99.90;;;;;;5104842;27;20039;-47
2022/11/23 11:02:54;;;;;;;18.27;4.03;;;10.10;99.90;;;;;;5100445;28;20044;-48
2022/11/23 11:05:25;;;;;;;14.95;2.97;;;10.30;99.90;;;;;;5086811;28;20058;-46
2022/11/23 11:07:52;;;;;;;11.82;3.20;;;10.50;99.90;;;;;;5105174;28;20043;-46
2022/11/23 11:10:44;;;;;;;14.65;2.72;;;10.70;99.90;;;;;;5103691;28;20074;-45
2022/11/23 11:13:28;;;;;;;14.13;3.00;;;11.10;99.90;;;;;;5104473;28;20040;-45
2022/11/23 11:16:05;;;;;;;15.85;3.13;;;11.40;99.90;;;;;;5103932;28;20040;-46
2022/11/23 11:18:34;;;;;;;13.98;3.25;;;11.70;99.90;;;;;;5105980;28;20043;-44
2022/11/23 11:21:01;;;;;;;13.13;2.92;;;11.80;99.90;;;;;;5103205;28;20048;-45
2022/11/23 11:23:28;;;;;;;9.75;2.75;;;12.00;99.90;;;;;;5104261;28;20459;-45
2022/11/23 11:26:22;;;;;;;13.45;2.83;;;12.20;99.90;;;;;;5100999;28;20044;-45
2022/11/23 11:28:50;;;;;;;10.52;2.92;;;12.30;99.90;;;;;;5099654;28;20047;-46
2022/11/23 11:31:28;;;;;;;14.77;3.42;;;12.30;99.90;;;;;;5082616;28;20067;-45
2022/11/23 11:33:53;;;;;;;12.82;3.22;;;12.20;99.90;;;;;;5099760;28;20039;-44
2022/11/23 11:36:21;;;;;;;14.70;3.33;;;12.20;99.90;;;;;;5102075;28;20111;-44
2022/11/23 11:38:53;;;;;;;12.85;3.50;;;12.20;99.90;;;;;;5098082;28;20493;-44
2022/11/23 11:41:24;;;;;;;12.48;2.85;;;12.10;99.90;;;;;;5101121;28;20043;-46
2022/11/23 11:43:58;;;;;;;10.05;2.53;;;12.20;99.90;;;;;;5101455;28;20082;-44
2022/11/23 11:46:36;;;;;;;12.13;2.70;;;12.30;99.90;;;;;;5087875;28;20047;-46
2022/11/23 11:49:20;;;;;;;10.35;2.88;;;12.30;99.90;;;;;;5082817;28;20039;-46
2022/11/23 11:51:50;;;;;;;14.32;3.33;;;12.40;99.90;;;;;;5098641;28;20036;-44
2022/11/23 11:55:01;;;;;;;13.77;2.58;;;12.50;99.90;;;;;;5086439;28;20044;-46
2022/11/23 11:57:38;;;;;;;12.60;3.60;;;12.50;99.90;;;;;;5006964;28;20121;-45
2022/11/23 12:00:11;;;;;;;11.75;2.95;;;12.40;99.90;;;;;;5004740;28;20042;-50
2022/11/23 12:03:05;;;;;;;9.93;2.40;;;12.20;99.90;;;;;;5066339;28;20098;-46
2022/11/23 12:05:54;;;;;;;13.32;2.97;;;12.20;99.90;;;;;;5110440;27;20046;-47
2022/11/23 12:08:20;;;;;;;10.07;2.60;;;12.20;99.90;;;;;;5111177;28;20050;-45
2022/11/23 12:10:45;;;;;;;12.52;3.15;;;12.10;99.90;;;;;;5090252;28;20194;-46
2022/11/23 12:13:21;;;;;;;8.68;2.53;;;12.20;99.90;;;;;;5112739;28;20395;-44
2022/11/23 12:15:59;;;;;;;11.57;3.00;;;12.40;99.90;;;;;;5112776;27;20482;-46
2022/11/23 12:18:42;;;;;;;10.38;2.42;;;12.40;99.90;;;;;;5112270;27;20032;-47
2022/11/23 12:21:14;;;;;;;12.60;2.90;;;12.50;99.90;;;;;;5104868;27;20079;-46
2022/11/23 12:24:21;;;;;;;13.90;2.67;;;12.60;99.90;;;;;;5111343;28;20069;-46
2022/11/23 12:27:16;;;;;;;12.02;2.90;;;12.50;99.90;;;;;;5110189;28;20120;-48
2022/11/23 12:30:14;;;;;;;9.85;2.70;;;12.40;99.90;;;;;;5112256;27;20043;-48
2022/11/23 12:32:49;;;;;;;12.23;2.85;;;12.60;99.90;;;;;;5109716;27;20045;-44
2022/11/23 12:35:39;;;;;;;7.88;2.28;;;12.50;99.90;;;;;;5112212;27;20040;-49
2022/11/23 12:38:13;;;;;;;9.32;2.28;;;12.40;99.90;;;;;;5112931;27;20039;-46
2022/11/23 12:40:51;;;;;;;9.95;2.28;;;12.50;99.90;;;;;;5094859;28;20417;-48
2022/11/23 12:43:31;;;;;;;15.00;2.33;;;12.40;99.90;;;;;;5112688;27;20039;-46
2022/11/23 12:46:24;;;;;;;8.20;2.45;;;12.40;99.90;;;;;;5112510;27;20036;-45
2022/11/23 12:48:59;;;;;;;9.45;1.98;;;12.40;99.90;;;;;;5113304;27;20051;-46
2022/11/23 12:51:43;;;;;;;10.43;2.40;;;12.30;99.90;;;;;;5114226;27;20084;-46